Terminal Aerodrome Forecast
Issued by NWS

Home | Current Version | Previous Version | Text Only | Print | Product List | Glossary On
Versions: 1 2 3 4 5 6 7 8 9 10 11 12 13 14 15 16 17 18 19 20 21 22 23 24 25 26 27 28 29 30 31 32 33
872
FTUS46 KLOX 172333
TAFLAX
TAF
KLAX 172333Z 1800/1906 26009KT P6SM BKN200
     FM180400 VRB03KT P6SM SCT200
     FM181300 VRB03KT 5SM BR SCT200
     FM181800 22004KT 5SM HZ SCT200
     FM182100 26009KT 6SM HZ SCT200
     FM190400 25006KT 5SM BR BKN010=

USA.gov is the U.S. government's official web portal to all federal, state and local government web resources and services.